createdAt,value
2023-03-10T00:00:02.577Z,116.24
2023-03-10T00:15:03.051Z,116.24
2023-03-10T00:30:01.537Z,115.67
2023-03-10T00:45:01.868Z,115.67
2023-03-10T01:00:02.383Z,115.67
2023-03-10T01:15:02.849Z,115.67
2023-03-10T01:30:03.416Z,115.67
2023-03-10T01:45:01.844Z,115.67
2023-03-10T02:00:02.188Z,114.7
2023-03-10T02:15:02.310Z,115.99
2023-03-10T02:30:01.325Z,115.99
2023-03-10T02:45:01.644Z,115.99
2023-03-10T03:00:01.993Z,115.99
2023-03-10T03:15:02.277Z,115.99
2023-03-10T03:30:01.389Z,115.99
2023-03-10T03:45:01.700Z,115.99
2023-03-10T04:00:02.057Z,115.99
2023-03-10T04:15:01.989Z,115.99
2023-03-10T04:30:02.581Z,115.99
2023-03-10T04:45:01.484Z,115.99
2023-03-10T05:00:03.208Z,115.99
2023-03-10T05:15:02.028Z,115.99
2023-03-10T05:30:02.060Z,113.12
2023-03-10T05:45:02.023Z,112.11
2023-03-10T06:00:02.085Z,112.43
2023-03-10T06:15:01.887Z,112.68
2023-03-10T06:30:02.227Z,112.27
2023-03-10T06:45:01.617Z,111.38
2023-03-10T07:00:02.231Z,109.88
2023-03-10T07:15:01.996Z,107.58
2023-03-10T07:30:02.253Z,107.58
2023-03-10T07:45:01.582Z,107.58
2023-03-10T08:00:01.953Z,107.58
2023-03-10T08:15:01.895Z,107.58
2023-03-10T08:30:02.271Z,107.58
2023-03-10T08:45:02.811Z,107.58
2023-03-10T09:00:01.478Z,107.58
2023-03-10T09:15:02.310Z,107.58
2023-03-10T09:30:02.252Z,107.58
2023-03-10T09:45:02.720Z,107.58
2023-03-10T10:00:01.348Z,107.58
2023-03-10T10:15:01.801Z,107.58
2023-03-10T10:30:02.152Z,107.58
2023-03-10T10:45:02.013Z,107.58
2023-03-10T11:00:02.737Z,107.58
2023-03-10T11:15:01.368Z,107.58
2023-03-10T11:30:01.754Z,53.38
2023-03-10T11:45:02.061Z,67.63
2023-03-10T12:00:02.336Z,55.33
2023-03-10T12:15:03.186Z,51.24
2023-03-10T12:30:01.503Z,38.9
2023-03-10T12:45:01.810Z,48.97
2023-03-10T13:00:02.145Z,48.97
2023-03-10T13:15:01.972Z,72.65
2023-03-10T13:30:01.560Z,86.73
2023-03-10T13:45:02.478Z,87.5
2023-03-10T14:00:02.990Z,87.46
2023-03-10T14:15:01.566Z,87.46
2023-03-10T14:30:01.954Z,87.46
2023-03-10T14:45:02.495Z,87.46
2023-03-10T15:00:01.716Z,87.46
2023-03-10T15:15:02.300Z,87.46
2023-03-10T15:30:01.981Z,87.46
2023-03-10T15:45:02.035Z,87.46
2023-03-10T16:00:01.429Z,87.46
2023-03-10T16:15:03.132Z,87.46
2023-03-10T16:30:01.508Z,87.46
2023-03-10T16:45:01.993Z,87.46
2023-03-10T17:00:02.577Z,87.46
2023-03-10T17:15:02.970Z,87.46
2023-03-10T17:30:02.216Z,87.46
2023-03-10T17:45:01.819Z,87.46
2023-03-10T18:00:03.052Z,87.46
2023-03-10T18:15:01.552Z,87.46
2023-03-10T18:30:01.944Z,96.28
2023-03-10T18:45:02.391Z,96.28
2023-03-10T19:00:01.670Z,96.28
2023-03-10T19:15:01.942Z,96.28
2023-03-10T19:30:02.326Z,96.28
2023-03-10T19:45:02.427Z,96.28
2023-03-10T20:00:02.056Z,109.52
2023-03-10T20:15:02.458Z,110.65
2023-03-10T20:30:02.762Z,110.85
2023-03-10T20:45:01.502Z,110.61
2023-03-10T21:00:02.587Z,109.44
2023-03-10T21:15:02.098Z,110.37
2023-03-10T21:30:01.856Z,111.46
2023-03-10T21:45:02.147Z,111.46
2023-03-10T22:00:02.540Z,111.46
2023-03-10T22:15:02.851Z,108.47
2023-03-10T22:30:01.347Z,108.47
2023-03-10T22:45:01.659Z,108.47
2023-03-10T23:00:02.141Z,108.47
2023-03-10T23:15:06.985Z,110.85
2023-03-10T23:30:01.349Z,111.3
2023-03-10T23:45:02.406Z,111.79
